Time;durP1;ratioP1;P1;durP2;ratioP2;P2;SDS_P1;SDS_P2;PMS_P1;PMS_P2;Temp;Humidity;BMP_temperature;BMP_pressure;BME280_temperature;BME280_humidity;BME280_pressure;Samples;Min_cycle;Max_cycle;Signal;HPM_P1;HPM_P2
2024/04/14 00:09:39;;;;;;;13.85;3.53;;;14.60;1.00;;;;;;21977967;26;20514;-45
2024/04/14 00:19:41;;;;;;;14.70;3.20;;;14.40;1.00;;;;;;21984786;26;19993;-44
2024/04/14 00:29:42;;;;;;;17.08;3.38;;;14.30;1.00;;;;;;21985962;26;19997;-44
2024/04/14 00:39:43;;;;;;;11.38;2.95;;;14.10;1.00;;;;;;21984994;26;20012;-44
2024/04/14 00:49:44;;;;;;;8.35;1.80;;;13.80;1.00;;;;;;21980831;26;20016;-44
2024/04/14 00:59:45;;;;;;;7.97;1.55;;;13.80;1.00;;;;;;21987510;26;19997;-44
2024/04/14 01:09:46;;;;;;;7.60;1.92;;;13.60;1.00;;;;;;21967652;26;20033;-44
2024/04/14 01:19:47;;;;;;;8.05;1.42;;;13.50;1.00;;;;;;21980489;26;20041;-44
2024/04/14 01:29:48;;;;;;;8.18;1.50;;;13.30;1.00;;;;;;21976438;26;20104;-44
2024/04/14 01:39:49;;;;;;;10.77;1.70;;;13.10;1.00;;;;;;21980639;26;20014;-44
2024/04/14 01:49:50;;;;;;;8.38;1.17;;;12.90;1.00;;;;;;21968761;26;20459;-44
2024/04/14 01:59:51;;;;;;;8.48;1.25;;;12.70;1.00;;;;;;21982930;26;20024;-44
2024/04/14 02:09:53;;;;;;;11.73;1.65;;;12.50;1.00;;;;;;21967404;26;20368;-44
2024/04/14 02:19:54;;;;;;;6.72;1.20;;;12.30;1.00;;;;;;21975853;26;20005;-44
2024/04/14 02:29:55;;;;;;;7.78;1.55;;;12.30;1.00;;;;;;21975480;26;20017;-43
2024/04/14 02:39:56;;;;;;;6.85;1.30;;;12.20;1.00;;;;;;23397061;21;20016;-78
2024/04/14 02:49:57;;;;;;;9.23;1.55;;;12.10;1.00;;;;;;22171353;26;20000;-78
2024/04/14 02:59:58;;;;;;;5.15;1.20;;;12.00;1.00;;;;;;22199446;26;20008;-78
2024/04/14 03:09:59;;;;;;;6.63;1.27;;;12.00;1.00;;;;;;22190463;26;19996;-78
2024/04/14 03:20:00;;;;;;;7.60;1.20;;;11.90;1.00;;;;;;22181218;26;20020;-78
2024/04/14 03:30:01;;;;;;;10.10;1.42;;;11.80;1.00;;;;;;22225139;26;20004;-78
2024/04/14 03:40:05;;;;;;;8.07;1.55;;;11.70;1.00;;;;;;22193426;26;20128;-77
2024/04/14 03:50:06;;;;;;;9.57;1.42;;;11.60;1.00;;;;;;22221529;26;20429;-78
2024/04/14 04:00:09;;;;;;;10.65;1.58;;;11.50;1.00;;;;;;22217953;26;19996;-77
2024/04/14 04:10:10;;;;;;;7.35;1.33;;;11.50;1.00;;;;;;22216481;26;20004;-78
2024/04/14 04:20:10;;;;;;;7.32;1.25;;;11.50;1.00;;;;;;22202012;26;20003;-78
2024/04/14 04:30:12;;;;;;;9.55;2.78;;;11.50;1.00;;;;;;22169539;26;20069;-78
2024/04/14 04:40:13;;;;;;;9.85;1.10;;;11.50;1.00;;;;;;22208899;26;20038;-78
2024/04/14 04:50:14;;;;;;;8.02;1.20;;;11.50;1.00;;;;;;22196705;26;20334;-78
2024/04/14 05:00:15;;;;;;;6.93;1.15;;;11.50;1.00;;;;;;22213506;26;20474;-78
2024/04/14 05:10:16;;;;;;;7.97;1.10;;;11.50;1.00;;;;;;22211408;26;20097;-78
2024/04/14 05:20:17;;;;;;;6.07;0.75;;;11.50;1.00;;;;;;22199460;26;20097;-78
2024/04/14 05:30:18;;;;;;;7.05;1.30;;;11.50;1.00;;;;;;22214535;26;20127;-78
2024/04/14 05:40:19;;;;;;;5.97;1.48;;;11.50;1.00;;;;;;22214769;26;20327;-78
2024/04/14 05:50:20;;;;;;;5.68;1.17;;;11.50;1.00;;;;;;22196470;26;20055;-78
2024/04/14 06:00:21;;;;;;;10.32;1.50;;;11.50;1.00;;;;;;22193283;26;20507;-78
2024/04/14 06:10:22;;;;;;;6.32;1.30;;;11.50;1.00;;;;;;22195653;26;20000;-78
2024/04/14 06:20:23;;;;;;;9.32;1.48;;;11.60;1.00;;;;;;22193087;26;20424;-77
2024/04/14 06:30:24;;;;;;;8.50;1.42;;;11.70;1.00;;;;;;22149212;26;21934;-78
2024/04/14 06:40:25;;;;;;;5.68;1.10;;;11.80;1.00;;;;;;22178480;26;19996;-81
2024/04/14 06:50:26;;;;;;;9.50;1.88;;;11.90;1.00;;;;;;22169011;26;20018;-78
2024/04/14 07:00:27;;;;;;;6.32;1.40;;;12.00;1.00;;;;;;22215162;26;20001;-81
2024/04/14 07:10:28;;;;;;;9.07;1.70;;;12.10;1.00;;;;;;22189820;26;20036;-78
2024/04/14 07:20:29;;;;;;;9.10;1.45;;;12.20;1.00;;;;;;22201181;26;20530;-77
2024/04/14 07:30:30;;;;;;;12.55;1.10;;;12.30;1.00;;;;;;22194255;26;20004;-76
2024/04/14 07:40:31;;;;;;;14.07;1.58;;;12.40;1.00;;;;;;22202895;26;20040;-76
2024/04/14 07:50:32;;;;;;;8.18;1.80;;;12.70;1.00;;;;;;22222721;26;19997;-75
2024/04/14 08:00:33;;;;;;;8.73;1.30;;;12.90;1.00;;;;;;22220911;26;20347;-76
2024/04/14 08:10:34;;;;;;;7.68;1.17;;;13.00;1.00;;;;;;22198560;26;20131;-76
2024/04/14 08:20:36;;;;;;;7.85;1.17;;;13.10;1.00;;;;;;22220727;26;19992;-75
2024/04/14 08:30:37;;;;;;;3.97;0.90;;;13.20;1.00;;;;;;22217816;26;20013;-75
2024/04/14 08:40:39;;;;;;;5.50;0.65;;;13.20;1.00;;;;;;22215205;26;19996;-76
2024/04/14 08:50:41;;;;;;;4.07;0.93;;;13.40;1.00;;;;;;22210642;26;19997;-75
2024/04/14 09:00:52;;;;;;;5.82;0.80;;;13.50;1.00;;;;;;22209904;26;21976;-76
2024/04/14 09:10:53;;;;;;;6.95;1.02;;;13.70;1.00;;;;;;22201372;26;20815;-75
2024/04/14 09:20:54;;;;;;;7.22;1.25;;;13.80;1.00;;;;;;22211415;26;20035;-76
2024/04/14 09:30:56;;;;;;;4.97;1.00;;;14.30;1.00;;;;;;22193323;26;20398;-76
2024/04/14 09:40:59;;;;;;;4.60;0.85;;;15.00;1.00;;;;;;22188251;26;20000;-75
2024/04/14 09:51:01;;;;;;;3.63;0.75;;;15.20;1.00;;;;;;22167142;26;20516;-77
2024/04/14 10:01:08;;;;;;;8.48;1.00;;;15.00;1.00;;;;;;22187043;26;20015;-75
2024/04/14 10:11:11;;;;;;;7.97;1.00;;;15.20;1.00;;;;;;22152131;26;19996;-78
2024/04/14 10:21:13;;;;;;;3.05;0.80;;;15.20;1.00;;;;;;22162382;26;20019;-75
2024/04/14 10:31:25;;;;;;;5.60;1.10;;;15.40;1.00;;;;;;22184163;26;20443;-74
2024/04/14 10:41:26;;;;;;;4.75;0.75;;;15.60;1.00;;;;;;22189520;26;20019;-75
2024/04/14 10:51:27;;;;;;;4.03;0.90;;;15.70;1.00;;;;;;22179930;26;20081;-75
2024/04/14 11:01:28;;;;;;;5.30;1.00;;;16.10;1.00;;;;;;22160985;26;20130;-78
2024/04/14 11:11:29;;;;;;;4.10;0.73;;;16.00;1.00;;;;;;22169162;26;20005;-78
2024/04/14 11:21:30;;;;;;;5.07;1.23;;;16.60;1.00;;;;;;22165429;26;20000;-78
2024/04/14 11:31:34;;;;;;;4.55;0.95;;;17.20;1.00;;;;;;22175583;26;20491;-78
2024/04/14 11:41:35;;;;;;;8.40;1.40;;;17.30;1.00;;;;;;22213096;26;20031;-78
2024/04/14 11:51:36;;;;;;;4.55;1.00;;;17.30;1.00;;;;;;22217088;26;20015;-78
2024/04/14 12:01:37;;;;;;;5.07;1.42;;;17.30;1.00;;;;;;22216038;26;20000;-77
2024/04/14 12:11:38;;;;;;;5.32;1.23;;;17.60;1.00;;;;;;22202450;26;20048;-75
2024/04/14 12:21:39;;;;;;;5.60;1.30;;;17.90;1.00;;;;;;22214851;26;20444;-76
2024/04/14 12:31:40;;;;;;;5.15;1.23;;;17.90;1.00;;;;;;22217174;26;20106;-74
2024/04/14 12:41:41;;;;;;;6.00;1.50;;;17.90;1.00;;;;;;22198520;26;20561;-75
2024/04/14 12:51:43;;;;;;;6.05;1.45;;;17.80;1.00;;;;;;22220800;26;20004;-75
2024/04/14 13:01:44;;;;;;;7.68;1.10;;;17.20;1.00;;;;;;22225054;26;20019;-75
2024/04/14 13:11:45;;;;;;;7.57;1.25;;;17.30;1.00;;;;;;22198277;26;20664;-75
2024/04/14 13:21:46;;;;;;;4.25;1.08;;;17.70;1.00;;;;;;22208756;26;20431;-78
2024/04/14 13:31:47;;;;;;;8.13;1.40;;;17.90;1.00;;;;;;22198836;26;20289;-78
2024/04/14 13:41:48;;;;;;;7.07;1.17;;;18.20;1.00;;;;;;22221778;26;20011;-79
2024/04/14 13:51:49;;;;;;;5.00;0.95;;;18.30;1.00;;;;;;22270385;26;19992;-78
2024/04/14 14:01:50;;;;;;;4.90;1.08;;;18.60;1.00;;;;;;22263728;26;20015;-78
2024/04/14 14:11:51;;;;;;;5.35;1.30;;;17.90;1.00;;;;;;22222726;26;20311;-79
2024/04/14 14:21:52;;;;;;;6.40;1.38;;;17.50;1.00;;;;;;22211297;26;19993;-78
2024/04/14 14:31:53;;;;;;;6.13;1.13;;;17.20;1.00;;;;;;22184477;26;19996;-77
2024/04/14 14:41:54;;;;;;;7.03;1.13;;;16.80;1.00;;;;;;22198214;26;20515;-78
2024/04/14 14:51:55;;;;;;;7.30;1.15;;;16.20;1.00;;;;;;22194211;26;20004;-79
2024/04/14 15:01:56;;;;;;;4.85;0.93;;;16.00;1.00;;;;;;22187636;26;20004;-78
2024/04/14 15:11:57;;;;;;;6.22;2.33;;;15.80;1.00;;;;;;22203473;26;20000;-78
2024/04/14 15:21:58;;;;;;;6.03;0.80;;;15.60;1.00;;;;;;22216235;26;20041;-79
2024/04/14 15:31:59;;;;;;;5.80;0.93;;;15.30;1.00;;;;;;22200646;26;20008;-78
2024/04/14 15:42:00;;;;;;;5.35;1.10;;;14.90;1.00;;;;;;22203306;26;20013;-78
2024/04/14 15:52:01;;;;;;;4.30;0.98;;;14.70;1.00;;;;;;22192834;26;19996;-78
2024/04/14 16:02:02;;;;;;;6.20;1.15;;;14.50;1.00;;;;;;22212292;26;21189;-78
2024/04/14 16:12:04;;;;;;;7.57;0.88;;;14.30;1.00;;;;;;22215126;26;20000;-77
2024/04/14 16:22:05;;;;;;;5.22;0.90;;;14.20;1.00;;;;;;22214985;26;20008;-78
2024/04/14 16:32:06;;;;;;;6.32;1.00;;;13.90;1.00;;;;;;22222298;26;20094;-78
2024/04/14 16:42:07;;;;;;;6.25;1.20;;;13.80;1.00;;;;;;22218468;26;20008;-78
2024/04/14 16:52:08;;;;;;;4.55;0.90;;;13.60;1.00;;;;;;22188262;26;20015;-77
2024/04/14 17:02:09;;;;;;;6.00;0.85;;;13.40;1.00;;;;;;22201304;26;19996;-77
2024/04/14 17:12:12;;;;;;;3.65;0.88;;;13.20;1.00;;;;;;22211275;26;20016;-77
2024/04/14 17:22:13;;;;;;;4.47;0.90;;;13.00;1.00;;;;;;22218144;26;20114;-77
2024/04/14 17:32:14;;;;;;;7.90;1.20;;;12.80;1.00;;;;;;22207334;26;20044;-78
2024/04/14 17:42:15;;;;;;;5.68;0.90;;;12.70;1.00;;;;;;22216171;26;20335;-77
2024/04/14 17:52:16;;;;;;;9.65;1.25;;;12.50;1.00;;;;;;22153211;26;20495;-79
2024/04/14 18:02:17;;;;;;;6.07;1.10;;;12.40;1.00;;;;;;22188585;26;20008;-78
2024/04/14 18:12:18;;;;;;;6.90;1.20;;;12.40;1.00;;;;;;22168269;26;20014;-79
2024/04/14 18:22:20;;;;;;;5.78;1.00;;;12.20;1.00;;;;;;22166931;26;20004;-79
2024/04/14 18:32:22;;;;;;;5.70;1.13;;;12.10;1.00;;;;;;22192849;26;20004;-78
2024/04/14 18:42:23;;;;;;;5.35;0.80;;;12.00;1.00;;;;;;22155258;26;20005;-78
2024/04/14 18:52:24;;;;;;;5.70;1.67;;;12.00;1.00;;;;;;22110317;26;20015;-78
2024/04/14 19:02:25;;;;;;;8.23;1.85;;;11.80;1.00;;;;;;22204026;26;20015;-78
2024/04/14 19:12:26;;;;;;;7.07;1.00;;;11.80;1.00;;;;;;22171161;26;20024;-78
2024/04/14 19:22:27;;;;;;;5.55;1.00;;;11.80;1.00;;;;;;22206074;26;20000;-77
2024/04/14 19:32:28;;;;;;;6.72;1.30;;;11.70;1.00;;;;;;22181564;26;20000;-78
2024/04/14 19:42:29;;;;;;;10.93;2.88;;;11.60;1.00;;;;;;22213955;26;19996;-77
2024/04/14 19:52:29;;;;;;;4.18;1.00;;;11.70;1.00;;;;;;22208314;26;20000;-78
2024/04/14 20:02:31;;;;;;;3.33;1.02;;;11.60;1.00;;;;;;22224886;26;20011;-77
2024/04/14 20:12:32;;;;;;;8.25;1.30;;;11.40;1.00;;;;;;22202031;26;20072;-77
2024/04/14 20:22:33;;;;;;;4.72;1.17;;;11.60;1.00;;;;;;22183379;26;19992;-77
2024/04/14 20:32:33;;;;;;;9.32;1.50;;;11.50;1.00;;;;;;22208538;26;20467;-78
2024/04/14 20:42:34;;;;;;;3.90;1.40;;;11.50;1.00;;;;;;22203165;26;20470;-77
2024/04/14 20:52:35;;;;;;;6.70;1.00;;;11.50;1.00;;;;;;22214080;26;20040;-78
2024/04/14 21:02:38;;;;;;;6.20;1.25;;;11.60;1.00;;;;;;22196087;26;20000;-77
2024/04/14 21:12:39;;;;;;;6.82;1.13;;;11.50;1.00;;;;;;22174721;26;20015;-77
2024/04/14 21:22:40;;;;;;;6.65;1.20;;;11.50;1.00;;;;;;22202645;26;19996;-77
2024/04/14 21:32:40;;;;;;;8.07;1.30;;;11.50;1.00;;;;;;22182539;26;19993;-77
2024/04/14 21:42:41;;;;;;;5.53;1.35;;;11.60;1.00;;;;;;22184972;26;20018;-77
2024/04/14 21:52:44;;;;;;;6.22;1.48;;;11.60;1.00;;;;;;22204150;26;20022;-78
2024/04/14 22:02:45;;;;;;;5.88;1.52;;;11.40;1.00;;;;;;22203389;26;20004;-78
2024/04/14 22:12:46;;;;;;;6.85;1.40;;;11.40;1.00;;;;;;22176028;26;20000;-77
2024/04/14 22:22:47;;;;;;;7.43;1.65;;;11.30;1.00;;;;;;22176605;26;20071;-77
2024/04/14 22:32:48;;;;;;;3.72;1.30;;;11.10;1.00;;;;;;22184743;26;20004;-77
2024/04/14 22:42:49;;;;;;;4.45;1.27;;;10.80;1.00;;;;;;22188859;26;20062;-75
2024/04/14 22:52:50;;;;;;;7.55;1.48;;;10.60;1.00;;;;;;22171952;26;20019;-75
2024/04/14 23:02:51;;;;;;;5.07;1.70;;;10.40;1.00;;;;;;22145031;26;20008;-76
2024/04/14 23:12:52;;;;;;;6.63;1.92;;;10.10;1.00;;;;;;22174216;26;20029;-76
2024/04/14 23:22:53;;;;;;;9.75;2.20;;;10.00;1.00;;;;;;22180552;26;20309;-77
2024/04/14 23:32:54;;;;;;;5.75;1.80;;;9.90;1.00;;;;;;22159575;26;20008;-75
2024/04/14 23:42:55;;;;;;;8.88;3.20;;;9.90;1.00;;;;;;22188249;26;20095;-75
2024/04/14 23:52:56;;;;;;;12.68;2.97;;;9.70;1.00;;;;;;22191643;26;20032;-76
